createdAt,value
2024-02-11T00:01:41.966Z,0
2024-02-11T00:03:41.986Z,0
2024-02-11T00:05:41.983Z,0
2024-02-11T00:07:42.030Z,0
2024-02-11T00:09:41.699Z,0
2024-02-11T00:11:41.796Z,0
2024-02-11T00:13:41.877Z,0
2024-02-11T00:15:41.723Z,0
2024-02-11T00:17:41.907Z,0
2024-02-11T00:19:42.242Z,0
2024-02-11T00:21:41.735Z,0
2024-02-11T00:23:41.778Z,0
2024-02-11T00:25:42.028Z,0
2024-02-11T00:27:41.808Z,0
2024-02-11T00:29:41.820Z,0
2024-02-11T00:31:42.059Z,0
2024-02-11T00:33:43.106Z,0
2024-02-11T00:35:41.855Z,0
2024-02-11T00:37:41.992Z,0
2024-02-11T00:39:41.790Z,0
2024-02-11T00:41:41.798Z,0
2024-02-11T00:43:42.027Z,0
2024-02-11T00:45:41.704Z,0
2024-02-11T00:47:42.239Z,0
2024-02-11T00:49:41.913Z,0
2024-02-11T00:51:41.740Z,0
2024-02-11T00:53:42.057Z,0
2024-02-11T00:55:41.898Z,0
2024-02-11T00:57:41.713Z,0
2024-02-11T00:59:42.203Z,0
2024-02-11T01:01:42.091Z,0
2024-02-11T01:03:41.742Z,0
2024-02-11T01:05:42.011Z,0
2024-02-11T01:07:42.697Z,0
2024-02-11T01:09:41.816Z,0
2024-02-11T01:11:41.727Z,0
2024-02-11T01:13:42.038Z,0
2024-02-11T01:15:41.817Z,0
2024-02-11T01:17:41.911Z,0
2024-02-11T01:19:41.978Z,0
2024-02-11T01:21:41.720Z,0
2024-02-11T01:23:41.676Z,0
2024-02-11T01:25:42.041Z,0
2024-02-11T01:27:41.671Z,0
2024-02-11T01:29:41.713Z,0
2024-02-11T01:31:42.966Z,0
2024-02-11T01:33:42.202Z,0
2024-02-11T01:35:41.705Z,0
2024-02-11T01:37:42.447Z,0
2024-02-11T01:39:41.789Z,0
2024-02-11T01:41:42.000Z,0
2024-02-11T01:43:42.029Z,0
2024-02-11T01:45:41.673Z,0
2024-02-11T01:47:41.921Z,0
2024-02-11T01:49:41.878Z,0
2024-02-11T01:51:41.681Z,0
2024-02-11T01:53:41.721Z,0
2024-02-11T01:55:41.949Z,0
2024-02-11T01:57:41.715Z,0
2024-02-11T01:59:41.651Z,0
2024-02-11T02:01:41.939Z,0
2024-02-11T02:03:41.829Z,0
2024-02-11T02:05:42.208Z,0
2024-02-11T02:07:42.473Z,0
2024-02-11T02:09:41.700Z,0
2024-02-11T02:11:41.702Z,0
2024-02-11T02:13:41.942Z,0
2024-02-11T02:15:41.700Z,0
2024-02-11T02:17:42.158Z,0
2024-02-11T02:19:41.876Z,0
2024-02-11T02:21:41.694Z,0
2024-02-11T02:23:41.693Z,0
2024-02-11T02:25:42.852Z,0
2024-02-11T02:27:41.664Z,0
2024-02-11T02:29:41.964Z,0
2024-02-11T02:31:42.041Z,0
2024-02-11T02:33:42.199Z,0
2024-02-11T02:35:41.695Z,0
2024-02-11T02:37:42.133Z,0
2024-02-11T02:39:42.392Z,0
2024-02-11T02:41:41.705Z,0
2024-02-11T02:43:42.369Z,0
2024-02-11T02:45:41.704Z,0
2024-02-11T02:47:42.667Z,0
2024-02-11T02:49:43.304Z,0
2024-02-11T02:51:41.760Z,0
2024-02-11T02:53:42.658Z,0
2024-02-11T02:55:42.125Z,0
2024-02-11T02:57:41.714Z,0
2024-02-11T02:59:41.665Z,0
2024-02-11T03:01:41.939Z,0
2024-02-11T03:03:41.865Z,0
2024-02-11T03:05:42.104Z,0
2024-02-11T03:07:42.729Z,0
2024-02-11T03:09:41.667Z,0
2024-02-11T03:11:41.666Z,0
2024-02-11T03:13:41.789Z,0
2024-02-11T03:15:41.671Z,0
2024-02-11T03:17:41.953Z,0
2024-02-11T03:19:41.881Z,0
2024-02-11T03:21:41.684Z,0
2024-02-11T03:23:41.765Z,0
2024-02-11T03:25:41.922Z,0
2024-02-11T03:27:41.712Z,0
2024-02-11T03:29:41.705Z,0
2024-02-11T03:31:41.841Z,0
2024-02-11T03:33:42.451Z,0
2024-02-11T03:35:44.093Z,0
2024-02-11T03:37:42.317Z,0
2024-02-11T03:39:41.870Z,0
2024-02-11T03:41:41.804Z,0
2024-02-11T03:43:41.804Z,0
2024-02-11T03:45:42.084Z,0
2024-02-11T03:47:42.581Z,0
2024-02-11T03:49:41.840Z,0
2024-02-11T03:51:41.670Z,0
2024-02-11T03:53:41.701Z,0
2024-02-11T03:55:41.890Z,0
2024-02-11T03:57:42.037Z,0
2024-02-11T03:59:41.664Z,0
2024-02-11T04:01:41.982Z,0
2024-02-11T04:03:41.853Z,0
2024-02-11T04:05:41.993Z,0
2024-02-11T04:07:41.785Z,0
2024-02-11T04:09:41.669Z,0
2024-02-11T04:11:41.799Z,0
2024-02-11T04:13:41.817Z,0
2024-02-11T04:15:41.650Z,0
2024-02-11T04:17:41.880Z,0
2024-02-11T04:19:41.954Z,0
2024-02-11T04:21:41.785Z,0
2024-02-11T04:23:42.056Z,0
2024-02-11T04:25:42.102Z,0
2024-02-11T04:27:41.681Z,0
2024-02-11T04:29:41.696Z,0
2024-02-11T04:31:41.924Z,0
2024-02-11T04:33:41.987Z,0
2024-02-11T04:35:41.669Z,0
2024-02-11T04:37:41.886Z,0
2024-02-11T04:39:41.659Z,0
2024-02-11T04:41:41.686Z,0
2024-02-11T04:43:41.915Z,0
2024-02-11T04:45:41.705Z,0
2024-02-11T04:47:41.795Z,0
2024-02-11T04:49:41.987Z,0
2024-02-11T04:51:41.639Z,0
2024-02-11T04:53:41.754Z,0
2024-02-11T04:55:43.317Z,0
2024-02-11T04:57:41.649Z,0
2024-02-11T04:59:41.693Z,0
2024-02-11T05:01:41.822Z,0
2024-02-11T05:03:41.947Z,0
2024-02-11T05:05:42.000Z,0
2024-02-11T05:07:41.953Z,0
2024-02-11T05:09:41.753Z,0
2024-02-11T05:11:41.652Z,0
2024-02-11T05:13:41.928Z,0
2024-02-11T05:15:41.837Z,0
2024-02-11T05:17:41.676Z,0
2024-02-11T05:19:41.753Z,0
2024-02-11T05:21:41.680Z,0
2024-02-11T05:23:41.651Z,0
2024-02-11T05:25:42.127Z,0
2024-02-11T05:27:41.645Z,0
2024-02-11T05:29:41.637Z,0
2024-02-11T05:31:41.803Z,0
2024-02-11T05:33:42.263Z,0
2024-02-11T05:35:41.642Z,0
2024-02-11T05:37:41.878Z,0
2024-02-11T05:39:41.642Z,0
2024-02-11T05:41:42.059Z,0
2024-02-11T05:43:41.919Z,24.48
2024-02-11T05:45:41.919Z,24.48
2024-02-11T05:47:41.826Z,24.48
2024-02-11T05:49:41.674Z,24.48
2024-02-11T05:51:41.636Z,24.48
2024-02-11T05:53:41.807Z,24.48
2024-02-11T05:55:41.934Z,24.48
2024-02-11T05:57:41.715Z,24.48
2024-02-11T05:59:41.907Z,1.113
2024-02-11T06:01:41.722Z,1.113
2024-02-11T06:03:42.168Z,1.113
2024-02-11T06:05:42.054Z,1.113
2024-02-11T06:07:42.163Z,1.113
2024-02-11T06:09:42.197Z,1.113
2024-02-11T06:11:41.689Z,1.113
2024-02-11T06:13:42.011Z,3.338
2024-02-11T06:15:42.008Z,3.338
2024-02-11T06:17:41.824Z,3.338
2024-02-11T06:19:42.077Z,3.338
2024-02-11T06:21:41.743Z,3.338
2024-02-11T06:23:41.649Z,3.338
2024-02-11T06:25:41.923Z,3.338
2024-02-11T06:27:41.631Z,3.338
2024-02-11T06:29:41.630Z,3.338
2024-02-11T06:31:41.816Z,3.338
2024-02-11T06:33:42.772Z,3.338
2024-02-11T06:35:41.958Z,3.338
2024-02-11T06:37:41.816Z,3.338
2024-02-11T06:39:41.616Z,3.338
2024-02-11T06:41:41.790Z,3.338
2024-02-11T06:43:41.801Z,0
2024-02-11T06:45:41.692Z,0
2024-02-11T06:47:42.993Z,0
2024-02-11T06:49:42.448Z,0
2024-02-11T06:51:41.654Z,0
2024-02-11T06:53:41.612Z,0
2024-02-11T06:55:42.106Z,0
2024-02-11T06:57:41.651Z,0
2024-02-11T06:59:42.594Z,4.451
2024-02-11T07:01:41.840Z,4.451
2024-02-11T07:03:41.958Z,4.451
2024-02-11T07:05:41.999Z,4.451
2024-02-11T07:07:41.850Z,4.451
2024-02-11T07:09:42.476Z,4.451
2024-02-11T07:11:41.622Z,4.451
2024-02-11T07:13:41.962Z,2.225
2024-02-11T07:15:41.616Z,2.225
2024-02-11T07:17:41.927Z,2.225
2024-02-11T07:19:42.447Z,2.225
2024-02-11T07:21:41.604Z,2.225
2024-02-11T07:23:41.666Z,2.225
2024-02-11T07:25:41.882Z,2.225
2024-02-11T07:27:41.978Z,2.225
2024-02-11T07:29:41.628Z,7.789
2024-02-11T07:31:41.842Z,7.789
2024-02-11T07:33:42.646Z,7.789
2024-02-11T07:35:42.131Z,7.789
2024-02-11T07:37:41.858Z,7.789
2024-02-11T07:39:41.648Z,7.789
2024-02-11T07:41:41.631Z,7.789
2024-02-11T07:43:41.906Z,10.015
2024-02-11T07:45:41.731Z,10.015
2024-02-11T07:47:41.825Z,10.015
2024-02-11T07:49:41.847Z,10.015
2024-02-11T07:51:41.599Z,10.015
2024-02-11T07:53:41.603Z,10.015
2024-02-11T07:55:41.793Z,10.015
2024-02-11T07:57:41.607Z,10.015
2024-02-11T07:59:41.621Z,1.113
2024-02-11T08:01:42.364Z,1.113
2024-02-11T08:03:41.933Z,1.113
2024-02-11T08:05:42.096Z,1.113
2024-02-11T08:07:41.959Z,1.113
2024-02-11T08:09:41.617Z,1.113
2024-02-11T08:11:41.662Z,1.113
2024-02-11T08:13:41.797Z,3.338
2024-02-11T08:15:41.604Z,3.338
2024-02-11T08:17:41.876Z,3.338
2024-02-11T08:19:41.855Z,3.338
2024-02-11T08:21:41.851Z,3.338
2024-02-11T08:23:41.616Z,3.338
2024-02-11T08:25:41.814Z,3.338
2024-02-11T08:27:41.767Z,3.338
2024-02-11T08:29:41.603Z,4.451
2024-02-11T08:31:41.874Z,4.451
2024-02-11T08:33:42.332Z,4.451
2024-02-11T08:35:41.612Z,4.451
2024-02-11T08:37:41.816Z,4.451
2024-02-11T08:39:41.601Z,4.451
2024-02-11T08:41:42.288Z,4.451
2024-02-11T08:43:42.043Z,3.338
2024-02-11T08:45:41.608Z,3.338
2024-02-11T08:47:42.618Z,3.338
2024-02-11T08:49:41.871Z,3.338
2024-02-11T08:51:41.632Z,3.338
2024-02-11T08:53:41.605Z,3.338
2024-02-11T08:55:41.758Z,3.338
2024-02-11T08:57:41.585Z,3.338
2024-02-11T08:59:41.599Z,0
2024-02-11T09:01:41.752Z,0
2024-02-11T09:03:41.589Z,0
2024-02-11T09:05:41.908Z,0
2024-02-11T09:07:43.962Z,0
2024-02-11T09:09:41.616Z,0
2024-02-11T09:11:41.667Z,0
2024-02-11T09:13:46.671Z,27.818
2024-02-11T09:15:41.683Z,27.818
2024-02-11T09:17:42.145Z,27.818
2024-02-11T09:19:41.710Z,27.818
2024-02-11T09:21:41.608Z,27.818
2024-02-11T09:23:41.636Z,27.818
2024-02-11T09:25:41.934Z,27.818
2024-02-11T09:27:41.663Z,27.818
2024-02-11T09:29:41.583Z,4.451
2024-02-11T09:31:41.870Z,4.451
2024-02-11T09:33:42.072Z,4.451
2024-02-11T09:35:41.634Z,4.451
2024-02-11T09:37:41.854Z,4.451
2024-02-11T09:39:41.589Z,4.451
2024-02-11T09:41:41.661Z,4.451
2024-02-11T09:43:41.864Z,3.338
2024-02-11T09:45:41.603Z,3.338
2024-02-11T09:47:41.903Z,3.338
2024-02-11T09:49:41.824Z,3.338
2024-02-11T09:51:41.597Z,3.338
2024-02-11T09:53:41.617Z,3.338
2024-02-11T09:55:41.688Z,3.338
2024-02-11T09:57:41.695Z,3.338
2024-02-11T09:59:41.569Z,0
2024-02-11T10:01:41.817Z,0
2024-02-11T10:03:41.820Z,0
2024-02-11T10:05:42.155Z,0
2024-02-11T10:07:41.836Z,0
2024-02-11T10:09:41.638Z,0
2024-02-11T10:11:41.629Z,0
2024-02-11T10:13:43.812Z,2.225
2024-02-11T10:15:41.652Z,2.225
2024-02-11T10:17:41.876Z,2.225
2024-02-11T10:19:41.687Z,2.225
2024-02-11T10:21:41.759Z,2.225
2024-02-11T10:23:41.632Z,2.225
2024-02-11T10:25:41.903Z,2.225
2024-02-11T10:27:41.747Z,2.225
2024-02-11T10:29:41.692Z,3.338
2024-02-11T10:31:41.816Z,3.338
2024-02-11T10:33:42.138Z,3.338
2024-02-11T10:35:41.680Z,3.338
2024-02-11T10:37:41.819Z,3.338
2024-02-11T10:39:41.652Z,3.338
2024-02-11T10:41:41.634Z,3.338
2024-02-11T10:43:41.753Z,0
2024-02-11T10:45:41.885Z,0
2024-02-11T10:47:41.896Z,0
2024-02-11T10:49:42.361Z,0
2024-02-11T10:51:41.682Z,0
2024-02-11T10:53:41.623Z,0
2024-02-11T10:55:42.197Z,0
2024-02-11T10:57:41.696Z,0
2024-02-11T10:59:41.604Z,4.451
2024-02-11T11:01:42.284Z,4.451
2024-02-11T11:03:41.897Z,4.451
2024-02-11T11:05:42.159Z,4.451
2024-02-11T11:07:42.067Z,4.451
2024-02-11T11:09:41.650Z,4.451
2024-02-11T11:11:41.619Z,4.451
2024-02-11T11:13:41.910Z,0
2024-02-11T11:15:41.881Z,0
2024-02-11T11:17:42.217Z,0
2024-02-11T11:19:41.778Z,0
2024-02-11T11:21:41.587Z,0
2024-02-11T11:23:41.693Z,0
2024-02-11T11:25:42.256Z,0
2024-02-11T11:27:41.583Z,0
2024-02-11T11:29:41.617Z,3.338
2024-02-11T11:31:43.983Z,3.338
2024-02-11T11:33:42.051Z,3.338
2024-02-11T11:35:42.200Z,3.338
2024-02-11T11:37:41.865Z,3.338
2024-02-11T11:39:42.280Z,3.338
2024-02-11T11:41:41.568Z,3.338
2024-02-11T11:43:41.839Z,5.564
2024-02-11T11:45:41.878Z,5.564
2024-02-11T11:47:42.904Z,5.564
2024-02-11T11:49:41.968Z,5.564
2024-02-11T11:51:41.644Z,5.564
2024-02-11T11:53:41.611Z,5.564
2024-02-11T11:55:41.932Z,5.564
2024-02-11T11:57:41.586Z,5.564
2024-02-11T11:59:41.557Z,3.338
2024-02-11T12:01:42.090Z,3.338
2024-02-11T12:03:41.797Z,3.338
2024-02-11T12:05:42.103Z,3.338
2024-02-11T12:07:41.897Z,3.338
2024-02-11T12:09:41.576Z,3.338
2024-02-11T12:11:41.691Z,3.338
2024-02-11T12:13:41.833Z,2.225
2024-02-11T12:15:41.595Z,2.225
2024-02-11T12:17:41.937Z,2.225
2024-02-11T12:19:42.116Z,2.225
2024-02-11T12:21:41.664Z,2.225
2024-02-11T12:23:41.591Z,2.225
2024-02-11T12:25:42.672Z,2.225
2024-02-11T12:27:41.923Z,2.225
2024-02-11T12:29:41.628Z,0
2024-02-11T12:31:42.019Z,0
2024-02-11T12:33:42.080Z,0
2024-02-11T12:35:41.602Z,0
2024-02-11T12:37:41.823Z,0
2024-02-11T12:39:41.619Z,0
2024-02-11T12:41:41.716Z,0
2024-02-11T12:43:41.934Z,17.804
2024-02-11T12:45:42.615Z,17.804
2024-02-11T12:47:42.191Z,17.804
2024-02-11T12:49:41.882Z,17.804
2024-02-11T12:51:41.580Z,17.804
2024-02-11T12:53:42.016Z,17.804
2024-02-11T12:55:41.785Z,17.804
2024-02-11T12:57:41.582Z,17.804
2024-02-11T12:59:41.684Z,2.225
2024-02-11T13:01:41.882Z,2.225
2024-02-11T13:03:41.946Z,2.225
2024-02-11T13:05:41.898Z,2.225
2024-02-11T13:07:42.888Z,2.225
2024-02-11T13:09:41.748Z,2.225
2024-02-11T13:11:44.901Z,2.225
2024-02-11T13:13:44.163Z,1.113
2024-02-11T13:15:41.804Z,1.113
2024-02-11T13:17:42.235Z,1.113
2024-02-11T13:19:42.011Z,1.113
2024-02-11T13:21:53.507Z,1.113
2024-02-11T13:23:41.658Z,1.113
2024-02-11T13:25:43.328Z,1.113
2024-02-11T13:27:46.322Z,1.113
2024-02-11T13:29:42.732Z,14.466
2024-02-11T13:31:41.818Z,14.466
2024-02-11T13:33:41.599Z,14.466
2024-02-11T13:35:41.929Z,14.466
2024-02-11T13:37:41.814Z,14.466
2024-02-11T13:39:41.611Z,14.466
2024-02-11T13:41:41.622Z,14.466
2024-02-11T13:43:42.019Z,0
2024-02-11T13:45:41.651Z,0
2024-02-11T13:47:44.526Z,0
2024-02-11T13:49:42.140Z,0
2024-02-11T13:51:46.020Z,0
2024-02-11T13:53:46.952Z,0
2024-02-11T13:55:41.635Z,0
2024-02-11T13:57:41.597Z,0
2024-02-11T13:59:41.558Z,3.338
2024-02-11T14:01:41.909Z,3.338
2024-02-11T14:03:42.688Z,3.338
2024-02-11T14:05:42.749Z,3.338
2024-02-11T14:07:41.953Z,3.338
2024-02-11T14:09:41.602Z,3.338
2024-02-11T14:11:42.424Z,3.338
2024-02-11T14:13:41.814Z,0
2024-02-11T14:15:42.660Z,0
2024-02-11T14:17:41.676Z,0
2024-02-11T14:19:41.697Z,0
2024-02-11T14:21:41.585Z,0
2024-02-11T14:23:41.554Z,0
2024-02-11T14:25:41.714Z,0
2024-02-11T14:27:41.544Z,0
2024-02-11T14:29:41.608Z,4.451
2024-02-11T14:31:41.687Z,4.451
2024-02-11T14:33:41.989Z,4.451
2024-02-11T14:35:41.699Z,4.451
2024-02-11T14:37:41.757Z,4.451
2024-02-11T14:39:42.725Z,4.451
2024-02-11T14:41:45.675Z,4.451
2024-02-11T14:43:41.931Z,3.338
2024-02-11T14:45:41.693Z,3.338
2024-02-11T14:47:42.574Z,3.338
2024-02-11T14:49:41.903Z,3.338
2024-02-11T14:51:41.694Z,3.338
2024-02-11T14:53:41.580Z,3.338
2024-02-11T14:55:41.664Z,3.338
2024-02-11T14:57:41.598Z,3.338
2024-02-11T14:59:41.572Z,2.225
2024-02-11T15:01:41.783Z,2.225
2024-02-11T15:03:42.295Z,2.225
2024-02-11T15:05:42.389Z,2.225
2024-02-11T15:07:41.996Z,2.225
2024-02-11T15:09:41.521Z,2.225
2024-02-11T15:11:41.666Z,2.225
2024-02-11T15:13:41.921Z,3.338
2024-02-11T15:15:41.526Z,3.338
2024-02-11T15:17:42.038Z,3.338
2024-02-11T15:19:42.004Z,3.338
2024-02-11T15:21:42.187Z,3.338
2024-02-11T15:23:41.592Z,3.338
2024-02-11T15:25:41.959Z,3.338
2024-02-11T15:27:41.579Z,3.338
2024-02-11T15:29:41.601Z,3.338
2024-02-11T15:31:41.873Z,3.338
2024-02-11T15:33:42.214Z,3.338
2024-02-11T15:35:57.273Z,3.338
2024-02-11T15:37:41.790Z,3.338
2024-02-11T15:39:41.835Z,3.338
2024-02-11T15:41:41.711Z,3.338
2024-02-11T15:43:42.173Z,2.225
2024-02-11T15:45:41.733Z,2.225
2024-02-11T15:47:41.925Z,2.225
2024-02-11T15:49:42.213Z,2.225
2024-02-11T15:51:41.533Z,2.225
2024-02-11T15:53:41.522Z,2.225
2024-02-11T15:55:41.597Z,2.225
2024-02-11T15:57:41.639Z,2.225
2024-02-11T15:59:41.526Z,0
2024-02-11T16:01:41.541Z,0
2024-02-11T16:03:41.787Z,0
2024-02-11T16:05:42.053Z,0
2024-02-11T16:07:41.514Z,0
2024-02-11T16:09:41.528Z,0
2024-02-11T16:11:41.711Z,0
2024-02-11T16:13:41.532Z,2.225
2024-02-11T16:15:41.539Z,2.225
2024-02-11T16:17:42.026Z,2.225
2024-02-11T16:19:41.915Z,2.225
2024-02-11T16:21:41.662Z,2.225
2024-02-11T16:23:41.531Z,2.225
2024-02-11T16:25:41.581Z,2.225
2024-02-11T16:27:41.604Z,2.225
2024-02-11T16:29:41.679Z,2.225
2024-02-11T16:31:41.521Z,2.225
2024-02-11T16:33:42.044Z,2.225
2024-02-11T16:35:41.996Z,2.225
2024-02-11T16:37:41.681Z,2.225
2024-02-11T16:39:41.525Z,2.225
2024-02-11T16:41:41.611Z,2.225
2024-02-11T16:43:41.928Z,16.691
2024-02-11T16:45:41.560Z,16.691
2024-02-11T16:47:42.013Z,16.691
2024-02-11T16:49:41.560Z,16.691
2024-02-11T16:51:41.512Z,16.691
2024-02-11T16:53:41.576Z,16.691
2024-02-11T16:55:41.523Z,16.691
2024-02-11T16:57:41.673Z,16.691
2024-02-11T16:59:41.610Z,0
2024-02-11T17:01:41.634Z,0
2024-02-11T17:03:41.767Z,0
2024-02-11T17:05:42.009Z,0
2024-02-11T17:07:41.532Z,0
2024-02-11T17:09:41.524Z,0
2024-02-11T17:11:41.504Z,0
2024-02-11T17:13:41.629Z,2.225
2024-02-11T17:15:41.512Z,2.225
2024-02-11T17:17:42.016Z,2.225
2024-02-11T17:19:42.398Z,2.225
2024-02-11T17:21:41.726Z,2.225
2024-02-11T17:23:42.261Z,2.225
2024-02-11T17:25:41.697Z,2.225
2024-02-11T17:27:41.594Z,2.225
2024-02-11T17:29:41.570Z,0
2024-02-11T17:31:42.754Z,0
2024-02-11T17:33:42.282Z,0
2024-02-11T17:35:42.133Z,0
2024-02-11T17:37:41.586Z,0
2024-02-11T17:39:41.576Z,0
2024-02-11T17:41:41.722Z,0
2024-02-11T17:43:41.578Z,2.225
2024-02-11T17:45:41.529Z,2.225
2024-02-11T17:47:43.731Z,2.225
2024-02-11T17:49:41.626Z,2.225
2024-02-11T17:51:41.837Z,2.225
2024-02-11T17:53:51.604Z,2.225
2024-02-11T17:55:41.759Z,2.225
2024-02-11T17:57:41.604Z,2.225
2024-02-11T17:59:41.594Z,2.225
2024-02-11T18:01:42.049Z,2.225
2024-02-11T18:03:41.593Z,2.225
2024-02-11T18:05:44.545Z,2.225
2024-02-11T18:07:41.619Z,2.225
2024-02-11T18:09:41.550Z,2.225
2024-02-11T18:11:41.823Z,2.225
2024-02-11T18:13:41.591Z,1.113
2024-02-11T18:15:41.998Z,1.113
2024-02-11T18:17:41.890Z,1.113
2024-02-11T18:19:41.534Z,1.113
2024-02-11T18:21:41.536Z,1.113
2024-02-11T18:23:41.533Z,1.113
2024-02-11T18:26:11.587Z,1.113
2024-02-11T18:27:47.519Z,1.113
2024-02-11T18:33:42.533Z,1.113
2024-02-11T18:35:41.601Z,1.113
2024-02-11T18:37:41.502Z,1.113
2024-02-11T18:39:45.537Z,1.113
2024-02-11T18:41:52.017Z,1.113
2024-02-11T18:43:52.928Z,4.451
2024-02-11T18:47:41.957Z,4.451
2024-02-11T18:49:41.662Z,4.451
2024-02-11T18:51:41.753Z,4.451
2024-02-11T18:53:41.570Z,4.451
2024-02-11T18:55:41.583Z,4.451
2024-02-11T18:57:41.492Z,4.451
2024-02-11T18:59:41.474Z,4.451
2024-02-11T19:01:42.222Z,4.451
2024-02-11T19:03:41.746Z,4.451
2024-02-11T19:05:42.084Z,4.451
2024-02-11T19:07:41.509Z,4.451
2024-02-11T19:09:41.454Z,4.451
2024-02-11T19:11:41.694Z,4.451
2024-02-11T19:13:41.510Z,0
2024-02-11T19:15:41.458Z,0
2024-02-11T19:17:41.747Z,0
2024-02-11T19:19:41.463Z,0
2024-02-11T19:21:41.563Z,0
2024-02-11T19:23:41.504Z,0
2024-02-11T19:25:41.462Z,0
2024-02-11T19:27:41.451Z,0
2024-02-11T19:29:41.742Z,2.225
2024-02-11T19:31:41.511Z,2.225
2024-02-11T19:33:41.685Z,2.225
2024-02-11T19:35:41.512Z,2.225
2024-02-11T19:37:41.658Z,2.225
2024-02-11T19:39:41.714Z,2.225
2024-02-11T19:41:41.576Z,2.225
2024-02-11T19:43:41.598Z,1.113
2024-02-11T19:45:41.525Z,1.113
2024-02-11T19:47:42.080Z,1.113
2024-02-11T19:49:41.509Z,1.113
2024-02-11T19:51:42.055Z,1.113
2024-02-11T19:53:41.907Z,1.113
2024-02-11T19:55:41.667Z,1.113
2024-02-11T19:57:41.486Z,1.113
2024-02-11T19:59:41.491Z,0
2024-02-11T20:01:41.544Z,0
2024-02-11T20:03:41.502Z,0
2024-02-11T20:05:41.985Z,0
2024-02-11T20:07:41.500Z,0
2024-02-11T20:09:41.558Z,0
2024-02-11T20:11:41.801Z,0
2024-02-11T20:13:41.442Z,2.225
2024-02-11T20:15:41.451Z,2.225
2024-02-11T20:17:42.476Z,2.225
2024-02-11T20:19:41.531Z,2.225
2024-02-11T20:21:41.472Z,2.225
2024-02-11T20:23:41.720Z,2.225
2024-02-11T20:25:41.614Z,2.225
2024-02-11T20:27:41.604Z,2.225
2024-02-11T20:29:41.520Z,2.225
2024-02-11T20:31:41.484Z,2.225
2024-02-11T20:33:42.082Z,2.225
2024-02-11T20:35:41.721Z,2.225
2024-02-11T20:37:42.518Z,2.225
2024-02-11T20:39:41.575Z,2.225
2024-02-11T20:41:41.622Z,2.225
2024-02-11T20:43:41.493Z,0
2024-02-11T20:45:41.551Z,0
2024-02-11T20:47:41.883Z,0
2024-02-11T20:49:41.751Z,0
2024-02-11T20:51:41.510Z,0
2024-02-11T20:53:41.722Z,0
2024-02-11T20:55:41.447Z,0
2024-02-11T20:57:41.611Z,0
2024-02-11T20:59:41.588Z,3.338
2024-02-11T21:01:41.432Z,3.338
2024-02-11T21:03:41.761Z,3.338
2024-02-11T21:05:41.895Z,3.338
2024-02-11T21:07:41.434Z,3.338
2024-02-11T21:09:41.544Z,3.338
2024-02-11T21:11:41.460Z,3.338
2024-02-11T21:13:41.581Z,0
2024-02-11T21:15:41.632Z,0
2024-02-11T21:17:41.857Z,0
2024-02-11T21:19:41.518Z,0
2024-02-11T21:21:41.470Z,0
2024-02-11T21:23:41.888Z,0
2024-02-11T21:25:41.596Z,0
2024-02-11T21:27:59.094Z,0
2024-02-11T21:29:41.597Z,0
2024-02-11T21:31:41.502Z,0
2024-02-11T21:33:41.755Z,0
2024-02-11T21:35:41.647Z,0
2024-02-11T21:37:41.445Z,0
2024-02-11T21:39:41.751Z,0
2024-02-11T21:41:41.669Z,0
2024-02-11T21:43:41.419Z,0
2024-02-11T21:45:41.642Z,0
2024-02-11T21:47:42.599Z,0
2024-02-11T21:49:41.447Z,0
2024-02-11T21:51:41.515Z,0
2024-02-11T21:53:41.860Z,0
2024-02-11T21:55:41.483Z,0
2024-02-11T21:57:41.673Z,0
2024-02-11T21:59:41.438Z,0
2024-02-11T22:01:41.519Z,0
2024-02-11T22:03:41.512Z,0
2024-02-11T22:05:41.804Z,0
2024-02-11T22:07:41.410Z,0
2024-02-11T22:09:41.548Z,0
2024-02-11T22:11:41.840Z,0
2024-02-11T22:13:41.447Z,0
2024-02-11T22:15:41.403Z,0
2024-02-11T22:17:42.673Z,0
2024-02-11T22:19:41.428Z,0
2024-02-11T22:21:41.439Z,0
2024-02-11T22:23:41.723Z,0
2024-02-11T22:25:41.619Z,0
2024-02-11T22:27:41.476Z,0
2024-02-11T22:29:41.622Z,0
2024-02-11T22:31:42.056Z,0
2024-02-11T22:33:42.275Z,0
2024-02-11T22:35:41.882Z,0
2024-02-11T22:37:41.456Z,0
2024-02-11T22:39:41.399Z,0
2024-02-11T22:41:41.430Z,0
2024-02-11T22:43:41.597Z,0
2024-02-11T22:45:41.713Z,0
2024-02-11T22:47:42.032Z,0
2024-02-11T22:49:41.620Z,0
2024-02-11T22:51:41.632Z,0
2024-02-11T22:53:41.816Z,0
2024-02-11T22:55:41.428Z,0
2024-02-11T22:57:41.453Z,0
2024-02-11T22:59:41.995Z,0
2024-02-11T23:01:41.404Z,0
2024-02-11T23:03:41.739Z,0
2024-02-11T23:05:41.911Z,0
2024-02-11T23:07:41.643Z,0
2024-02-11T23:09:41.437Z,0
2024-02-11T23:11:41.401Z,0
2024-02-11T23:13:41.619Z,0
2024-02-11T23:15:41.391Z,0
2024-02-11T23:17:41.898Z,0
2024-02-11T23:19:41.538Z,0
2024-02-11T23:21:41.520Z,0
2024-02-11T23:23:42.120Z,0
2024-02-11T23:25:41.420Z,0
2024-02-11T23:27:41.765Z,0
2024-02-11T23:29:41.448Z,0
2024-02-11T23:31:42.021Z,0
2024-02-11T23:33:49.215Z,0
2024-02-11T23:35:42.035Z,0
2024-02-11T23:37:41.422Z,0
2024-02-11T23:39:41.415Z,0
2024-02-11T23:41:41.391Z,0
2024-02-11T23:43:41.607Z,0
2024-02-11T23:45:41.437Z,0
2024-02-11T23:47:41.870Z,0
2024-02-11T23:49:42.436Z,0
2024-02-11T23:51:41.418Z,0
2024-02-11T23:53:41.847Z,0
2024-02-11T23:55:41.455Z,0
2024-02-11T23:57:41.389Z,0
2024-02-11T23:59:41.578Z,0
